Time,TemperatureF,DewpointF,PressureIn,WindDirection,WindDirectionDegrees,WindSpeedMPH,WindSpeedGustMPH,Humidity,HourlyPrecipIn,Conditions,Clouds,dailyrainin,SoftwareType,DateUTC
2013-11-28 00:01:00,20.1,12.4,30.55,SW,225,0.0,0.0,72,0.00,,,0.00,WUHU216HW,2013-11-28 05:01:00,
2013-11-28 00:02:00,20.1,12.4,30.55,SW,225,0.0,0.0,72,0.00,,,0.00,WUHU216HW,2013-11-28 05:02:00,
2013-11-28 00:07:00,20.3,12.6,30.55,SW,225,0.0,0.0,72,0.00,,,0.00,WUHU216HW,2013-11-28 05:07:00,
2013-11-28 00:12:00,20.3,12.6,30.56,SW,225,0.0,0.0,72,0.00,,,0.00,WUHU216HW,2013-11-28 05:12:00,
2013-11-28 00:17:00,20.3,12.6,30.55,SW,225,0.0,0.0,72,0.00,,,0.00,WUHU216HW,2013-11-28 05:17:00,
2013-11-28 00:22:00,20.3,12.3,30.56,SW,225,0.0,0.0,71,0.00,,,0.00,WUHU216HW,2013-11-28 05:22:00,
2013-11-28 00:26:00,20.1,12.1,30.56,SW,225,0.0,0.0,71,0.00,,,0.00,WUHU216HW,2013-11-28 05:26:00,
2013-11-28 00:31:00,20.1,12.1,30.56,SW,225,0.0,0.0,71,0.00,,,0.00,WUHU216HW,2013-11-28 05:31:00,
2013-11-28 00:36:00,19.9,11.9,30.56,SW,225,0.0,0.0,71,0.00,,,0.00,WUHU216HW,2013-11-28 05:36:00,
2013-11-28 00:41:00,19.9,12.2,30.56,SW,225,0.0,0.0,72,0.00,,,0.00,WUHU216HW,2013-11-28 05:41:00,
2013-11-28 00:46:00,19.7,12.0,30.56,SW,225,0.0,0.0,72,0.00,,,0.00,WUHU216HW,2013-11-28 05:46:00,
2013-11-28 00:51:00,19.7,12.0,30.56,SW,225,0.0,0.0,72,0.00,,,0.00,WUHU216HW,2013-11-28 05:51:00,
2013-11-28 00:56:00,19.7,12.0,30.56,SW,225,0.0,0.0,72,0.00,,,0.00,WUHU216HW,2013-11-28 05:56:00,
2013-11-28 01:01:00,19.9,12.2,30.56,SW,225,0.0,0.0,72,0.00,,,0.00,WUHU216HW,2013-11-28 06:01:00,
2013-11-28 01:06:00,19.9,12.2,30.56,SW,225,0.0,0.0,72,0.00,,,0.00,WUHU216HW,2013-11-28 06:06:00,
2013-11-28 01:11:00,19.9,12.5,30.56,SW,225,0.0,0.0,73,0.00,,,0.00,WUHU216HW,2013-11-28 06:11:00,
2013-11-28 01:16:00,19.9,12.5,30.58,SW,225,0.0,0.0,73,0.00,,,0.00,WUHU216HW,2013-11-28 06:16:00,
2013-11-28 01:21:00,19.9,12.5,30.57,SW,225,0.0,0.0,73,0.00,,,0.00,WUHU216HW,2013-11-28 06:21:00,
2013-11-28 01:26:00,19.7,12.3,30.57,SW,225,0.0,0.0,73,0.00,,,0.00,WUHU216HW,2013-11-28 06:26:00,
2013-11-28 01:31:00,19.5,12.2,30.57,SW,225,0.0,0.0,73,0.00,,,0.00,WUHU216HW,2013-11-28 06:31:00,
2013-11-28 01:36:00,19.5,12.2,30.57,SW,225,0.0,0.0,73,0.00,,,0.00,WUHU216HW,2013-11-28 06:36:00,
2013-11-28 01:41:00,19.5,12.2,30.57,SW,225,0.0,0.0,73,0.00,,,0.00,WUHU216HW,2013-11-28 06:41:00,
2013-11-28 01:46:00,19.2,11.8,30.57,SW,225,0.0,0.0,73,0.00,,,0.00,WUHU216HW,2013-11-28 06:46:00,
2013-11-28 01:51:00,19.2,11.8,30.57,SW,225,0.0,0.0,73,0.00,,,0.00,WUHU216HW,2013-11-28 06:51:00,
2013-11-28 01:56:00,18.8,11.6,30.57,SW,225,0.0,0.0,73,0.00,,,0.00,WUHU216HW,2013-11-28 06:56:00,
2013-11-28 02:01:00,18.5,11.1,30.57,SW,225,0.0,0.0,73,0.00,,,0.00,WUHU216HW,2013-11-28 07:01:00,
2013-11-28 02:06:00,18.3,11.0,30.57,SW,225,0.0,0.0,73,0.00,,,0.00,WUHU216HW,2013-11-28 07:06:00,
2013-11-28 02:11:00,18.1,10.8,30.58,SW,225,0.0,0.0,73,0.00,,,0.00,WUHU216HW,2013-11-28 07:11:00,
2013-11-28 02:16:00,18.1,10.8,30.57,SW,225,0.0,0.0,73,0.00,,,0.00,WUHU216HW,2013-11-28 07:16:00,
2013-11-28 02:21:00,17.9,10.9,30.58,SW,225,0.0,0.0,74,0.00,,,0.00,WUHU216HW,2013-11-28 07:21:00,
2013-11-28 02:26:00,17.7,10.8,30.58,SW,225,0.0,0.0,74,0.00,,,0.00,WUHU216HW,2013-11-28 07:26:00,
2013-11-28 02:31:00,17.7,10.8,30.58,SW,225,0.0,0.0,74,0.00,,,0.00,WUHU216HW,2013-11-28 07:31:00,
2013-11-28 02:36:00,17.7,10.8,30.58,SW,225,0.0,0.0,74,0.00,,,0.00,WUHU216HW,2013-11-28 07:36:00,
2013-11-28 02:41:00,17.7,10.8,30.59,SW,225,0.0,0.0,74,0.00,,,0.00,WUHU216HW,2013-11-28 07:41:00,
2013-11-28 02:46:00,17.7,11.1,30.58,SW,225,0.0,0.0,75,0.00,,,0.00,WUHU216HW,2013-11-28 07:46:00,
2013-11-28 02:51:00,17.6,10.9,30.58,SW,225,0.0,0.0,75,0.00,,,0.00,WUHU216HW,2013-11-28 07:51:00,
2013-11-28 02:56:00,17.4,10.7,30.58,SW,225,0.0,0.0,75,0.00,,,0.00,WUHU216HW,2013-11-28 07:56:00,
2013-11-28 03:01:00,17.4,10.7,30.59,SW,225,0.0,0.0,75,0.00,,,0.00,WUHU216HW,2013-11-28 08:01:00,
2013-11-28 03:06:00,17.4,10.7,30.59,SW,225,0.0,0.0,75,0.00,,,0.00,WUHU216HW,2013-11-28 08:06:00,
2013-11-28 03:11:00,17.4,10.7,30.60,SW,225,0.0,0.0,75,0.00,,,0.00,WUHU216HW,2013-11-28 08:11:00,
2013-11-28 03:16:00,17.4,10.7,30.60,SW,225,0.0,0.0,75,0.00,,,0.00,WUHU216HW,2013-11-28 08:16:00,
2013-11-28 03:21:00,17.4,11.0,30.59,SW,225,0.0,0.0,76,0.00,,,0.00,WUHU216HW,2013-11-28 08:21:00,
2013-11-28 03:26:00,17.4,11.0,30.59,SW,225,0.0,0.0,76,0.00,,,0.00,WUHU216HW,2013-11-28 08:26:00,
2013-11-28 03:31:00,17.6,11.2,30.59,SW,225,0.0,0.0,76,0.00,,,0.00,WUHU216HW,2013-11-28 08:31:00,
2013-11-28 03:36:00,17.7,11.3,30.59,SW,225,0.0,0.0,76,0.00,,,0.00,WUHU216HW,2013-11-28 08:36:00,
2013-11-28 03:41:00,17.7,11.6,30.59,SW,225,0.0,0.0,77,0.00,,,0.00,WUHU216HW,2013-11-28 08:41:00,
2013-11-28 03:46:00,17.7,11.6,30.59,SW,225,0.0,0.0,77,0.00,,,0.00,WUHU216HW,2013-11-28 08:46:00,
2013-11-28 03:51:00,17.7,11.6,30.59,SW,225,0.0,0.0,77,0.00,,,0.00,WUHU216HW,2013-11-28 08:51:00,
2013-11-28 03:56:00,17.4,11.3,30.60,SW,225,0.0,0.0,77,0.00,,,0.00,WUHU216HW,2013-11-28 08:56:00,
2013-11-28 04:01:00,17.4,11.3,30.60,SW,225,0.0,0.0,77,0.00,,,0.00,WUHU216HW,2013-11-28 09:01:00,
2013-11-28 04:06:00,17.4,11.3,30.59,SW,225,0.0,0.0,77,0.00,,,0.00,WUHU216HW,2013-11-28 09:06:00,
2013-11-28 04:11:00,17.4,11.3,30.59,SW,225,0.0,0.0,77,0.00,,,0.00,WUHU216HW,2013-11-28 09:11:00,
2013-11-28 04:16:00,17.7,11.6,30.59,SW,225,0.0,0.0,77,0.00,,,0.00,WUHU216HW,2013-11-28 09:16:00,
2013-11-28 04:21:00,17.7,11.9,30.59,SW,225,0.0,0.0,78,0.00,,,0.00,WUHU216HW,2013-11-28 09:21:00,
2013-11-28 04:26:00,17.7,11.9,30.60,SW,225,0.0,0.0,78,0.00,,,0.00,WUHU216HW,2013-11-28 09:26:00,
2013-11-28 04:31:00,17.9,12.1,30.60,SW,225,0.0,0.0,78,0.00,,,0.00,WUHU216HW,2013-11-28 09:31:00,
2013-11-28 04:36:00,17.7,11.9,30.60,SW,225,0.0,0.0,78,0.00,,,0.00,WUHU216HW,2013-11-28 09:36:00,
2013-11-28 04:41:00,17.7,11.6,30.60,SW,225,0.0,0.0,77,0.00,,,0.00,WUHU216HW,2013-11-28 09:41:00,
2013-11-28 04:46:00,17.7,11.6,30.59,SW,225,0.0,0.0,77,0.00,,,0.00,WUHU216HW,2013-11-28 09:46:00,
2013-11-28 04:51:00,17.7,11.6,30.60,SW,225,0.0,0.0,77,0.00,,,0.00,WUHU216HW,2013-11-28 09:51:00,
2013-11-28 04:56:00,17.7,11.9,30.60,SW,225,0.0,0.0,78,0.00,,,0.00,WUHU216HW,2013-11-28 09:56:00,
2013-11-28 05:01:00,18.1,12.3,30.60,SW,225,0.0,0.0,78,0.00,,,0.00,WUHU216HW,2013-11-28 10:01:00,
2013-11-28 05:06:00,18.3,12.5,30.60,SW,225,0.0,0.0,78,0.00,,,0.00,WUHU216HW,2013-11-28 10:06:00,
2013-11-28 05:11:00,18.3,12.5,30.60,SW,225,0.0,0.0,78,0.00,,,0.00,WUHU216HW,2013-11-28 10:11:00,
2013-11-28 05:16:00,18.3,12.5,30.60,SW,225,0.0,0.0,78,0.00,,,0.00,WUHU216HW,2013-11-28 10:16:00,
2013-11-28 05:21:00,18.3,12.5,30.60,SW,225,0.0,0.0,78,0.00,,,0.00,WUHU216HW,2013-11-28 10:21:00,
2013-11-28 05:26:00,18.3,12.5,30.60,SW,225,0.0,0.0,78,0.00,,,0.00,WUHU216HW,2013-11-28 10:26:00,
2013-11-28 05:31:00,18.3,12.5,30.61,SW,225,0.0,0.0,78,0.00,,,0.00,WUHU216HW,2013-11-28 10:31:00,
2013-11-28 05:36:00,18.3,12.5,30.61,SW,225,0.0,0.0,78,0.00,,,0.00,WUHU216HW,2013-11-28 10:36:00,
2013-11-28 05:41:00,18.3,12.5,30.61,SW,225,0.0,0.0,78,0.00,,,0.00,WUHU216HW,2013-11-28 10:41:00,
2013-11-28 05:46:00,18.3,12.5,30.61,SW,225,0.0,0.0,78,0.00,,,0.00,WUHU216HW,2013-11-28 10:46:00,
2013-11-28 05:51:00,18.3,12.5,30.61,SW,225,0.0,0.0,78,0.00,,,0.00,WUHU216HW,2013-11-28 10:51:00,
2013-11-28 05:56:00,18.5,12.6,30.61,SW,225,0.0,0.0,78,0.00,,,0.00,WUHU216HW,2013-11-28 10:56:00,
2013-11-28 06:01:00,18.5,12.9,30.61,SW,225,0.0,0.0,79,0.00,,,0.00,WUHU216HW,2013-11-28 11:01:00,
2013-11-28 06:06:00,18.6,13.1,30.61,SW,225,0.0,0.0,79,0.00,,,0.00,WUHU216HW,2013-11-28 11:06:00,
2013-11-28 06:11:00,18.6,13.1,30.61,SW,225,0.0,0.0,79,0.00,,,0.00,WUHU216HW,2013-11-28 11:11:00,
2013-11-28 06:16:00,18.8,13.3,30.62,SW,225,0.0,0.0,79,0.00,,,0.00,WUHU216HW,2013-11-28 11:16:00,
2013-11-28 06:21:00,19.0,13.5,30.62,SW,225,0.0,0.0,79,0.00,,,0.00,WUHU216HW,2013-11-28 11:21:00,
2013-11-28 06:26:00,19.0,13.5,30.63,SW,225,0.0,0.0,79,0.00,,,0.00,WUHU216HW,2013-11-28 11:26:00,
2013-11-28 06:31:00,19.0,13.5,30.63,SW,225,0.0,0.0,79,0.00,,,0.00,WUHU216HW,2013-11-28 11:31:00,
2013-11-28 06:36:00,19.0,13.5,30.63,SW,225,0.0,0.0,79,0.00,,,0.00,WUHU216HW,2013-11-28 11:36:00,
2013-11-28 06:41:00,19.0,13.5,30.63,SW,225,0.0,0.0,79,0.00,,,0.00,WUHU216HW,2013-11-28 11:41:00,
2013-11-28 06:46:00,19.0,13.2,30.63,SW,225,0.0,0.0,78,0.00,,,0.00,WUHU216HW,2013-11-28 11:46:00,
2013-11-28 06:51:00,19.0,13.5,30.63,SW,225,0.0,0.0,79,0.00,,,0.00,WUHU216HW,2013-11-28 11:51:00,
2013-11-28 06:56:00,18.8,13.0,30.63,SW,225,0.0,0.0,78,0.00,,,0.00,WUHU216HW,2013-11-28 11:56:00,
2013-11-28 07:02:00,18.8,13.0,30.63,SW,225,0.0,0.0,78,0.00,,,0.00,WUHU216HW,2013-11-28 12:02:00,
2013-11-28 07:07:00,18.8,13.0,30.63,SW,225,0.0,0.0,78,0.00,,,0.00,WUHU216HW,2013-11-28 12:07:00,
2013-11-28 07:12:00,18.6,12.8,30.63,SW,225,0.0,0.0,78,0.00,,,0.00,WUHU216HW,2013-11-28 12:12:00,
2013-11-28 07:17:00,18.6,13.1,30.63,SW,225,0.0,0.0,79,0.00,,,0.00,WUHU216HW,2013-11-28 12:17:00,
2013-11-28 07:22:00,18.6,13.1,30.63,SW,225,0.0,0.0,79,0.00,,,0.00,WUHU216HW,2013-11-28 12:22:00,
2013-11-28 07:27:00,18.6,13.1,30.64,SW,225,0.0,0.0,79,0.00,,,0.00,WUHU216HW,2013-11-28 12:27:00,
2013-11-28 07:32:00,18.6,13.1,30.64,SW,225,0.0,0.0,79,0.00,,,0.00,WUHU216HW,2013-11-28 12:32:00,
2013-11-28 07:37:00,18.8,13.3,30.64,SW,225,0.0,0.0,79,0.00,,,0.00,WUHU216HW,2013-11-28 12:37:00,
2013-11-28 07:42:00,18.8,13.3,30.64,SW,225,0.0,0.0,79,0.00,,,0.00,WUHU216HW,2013-11-28 12:42:00,
2013-11-28 07:47:00,18.8,13.3,30.64,SW,225,0.0,0.0,79,0.00,,,0.00,WUHU216HW,2013-11-28 12:47:00,
2013-11-28 07:52:00,18.8,13.3,30.64,SW,225,0.0,0.0,79,0.00,,,0.00,WUHU216HW,2013-11-28 12:52:00,
2013-11-28 07:57:00,19.0,13.5,30.64,SW,225,0.0,0.0,79,0.00,,,0.00,WUHU216HW,2013-11-28 12:57:00,
2013-11-28 08:02:00,19.0,13.5,30.64,SW,225,0.0,0.0,79,0.00,,,0.00,WUHU216HW,2013-11-28 13:02:00,
2013-11-28 08:07:00,19.0,13.5,30.64,SW,225,0.0,0.0,79,0.00,,,0.00,WUHU216HW,2013-11-28 13:07:00,
2013-11-28 08:12:00,19.2,13.6,30.64,SW,225,0.0,0.0,79,0.00,,,0.00,WUHU216HW,2013-11-28 13:12:00,
2013-11-28 08:17:00,19.2,13.6,30.64,SW,225,0.0,0.0,79,0.00,,,0.00,WUHU216HW,2013-11-28 13:17:00,
2013-11-28 08:22:00,19.2,13.6,30.64,SW,225,0.0,0.0,79,0.00,,,0.00,WUHU216HW,2013-11-28 13:22:00,
2013-11-28 08:27:00,19.4,13.8,30.64,SW,225,0.0,0.0,79,0.00,,,0.00,WUHU216HW,2013-11-28 13:27:00,
2013-11-28 08:32:00,19.5,14.3,30.65,SW,225,0.0,0.0,80,0.00,,,0.00,WUHU216HW,2013-11-28 13:32:00,
2013-11-28 08:37:00,19.5,14.3,30.65,SW,225,0.0,0.0,80,0.00,,,0.00,WUHU216HW,2013-11-28 13:37:00,
2013-11-28 08:42:00,19.5,14.3,30.65,SW,225,0.0,0.0,80,0.00,,,0.00,WUHU216HW,2013-11-28 13:42:00,
2013-11-28 08:47:00,19.5,14.3,30.65,SW,225,0.0,0.0,80,0.00,,,0.00,WUHU216HW,2013-11-28 13:47:00,
2013-11-28 08:52:00,19.7,14.5,30.65,SW,225,0.0,0.0,80,0.00,,,0.00,WUHU216HW,2013-11-28 13:52:00,
2013-11-28 08:57:00,19.9,14.7,30.65,SW,225,0.0,0.0,80,0.00,,,0.00,WUHU216HW,2013-11-28 13:57:00,
2013-11-28 09:02:00,19.9,14.7,30.65,SW,225,0.0,0.0,80,0.00,,,0.00,WUHU216HW,2013-11-28 14:02:00,
2013-11-28 09:07:00,20.1,14.9,30.65,SW,225,0.0,0.0,80,0.00,,,0.00,WUHU216HW,2013-11-28 14:07:00,
2013-11-28 09:12:00,20.3,15.0,30.65,SW,225,0.0,0.0,80,0.00,,,0.00,WUHU216HW,2013-11-28 14:12:00,
2013-11-28 09:17:00,20.4,15.2,30.65,SW,225,0.0,0.0,80,0.00,,,0.00,WUHU216HW,2013-11-28 14:17:00,
2013-11-28 09:22:00,20.4,15.2,30.64,SW,225,0.0,0.0,80,0.00,,,0.00,WUHU216HW,2013-11-28 14:22:00,
2013-11-28 09:27:00,20.4,15.2,30.64,SW,225,0.0,0.0,80,0.00,,,0.00,WUHU216HW,2013-11-28 14:27:00,
2013-11-28 09:32:00,20.8,15.6,30.64,SW,225,0.0,0.0,80,0.00,,,0.00,WUHU216HW,2013-11-28 14:32:00,
2013-11-28 09:37:00,20.8,15.6,30.65,SW,225,0.0,0.0,80,0.00,,,0.00,WUHU216HW,2013-11-28 14:37:00,
2013-11-28 09:42:00,21.0,15.8,30.65,SW,225,0.0,0.0,80,0.00,,,0.00,WUHU216HW,2013-11-28 14:42:00,
2013-11-28 09:47:00,21.0,15.8,30.65,South,180,0.0,0.0,80,0.00,,,0.00,WUHU216HW,2013-11-28 14:47:00,
2013-11-28 09:52:00,21.0,15.8,30.64,SSW,203,0.0,0.0,80,0.00,,,0.00,WUHU216HW,2013-11-28 14:52:00,
2013-11-28 09:57:00,21.3,16.1,30.64,SSW,203,0.0,0.0,80,0.00,,,0.00,WUHU216HW,2013-11-28 14:57:00,
2013-11-28 10:02:00,21.3,16.1,30.65,SSW,203,0.0,0.0,80,0.00,,,0.00,WUHU216HW,2013-11-28 15:02:00,
2013-11-28 10:07:00,21.5,16.3,30.65,SSW,203,0.0,0.0,80,0.00,,,0.00,WUHU216HW,2013-11-28 15:07:00,
2013-11-28 10:12:00,21.7,16.5,30.64,ENE,68,0.0,0.0,80,0.00,,,0.00,WUHU216HW,2013-11-28 15:12:00,
2013-11-28 10:17:00,21.7,16.5,30.65,ENE,68,0.0,0.0,80,0.00,,,0.00,WUHU216HW,2013-11-28 15:17:00,
2013-11-28 10:22:00,21.9,16.7,30.65,ENE,68,0.0,0.0,80,0.00,,,0.00,WUHU216HW,2013-11-28 15:22:00,
2013-11-28 10:27:00,21.9,16.7,30.65,ENE,68,0.0,0.0,80,0.00,,,0.00,WUHU216HW,2013-11-28 15:27:00,
2013-11-28 10:32:00,22.1,16.8,30.65,ENE,68,0.0,0.0,80,0.00,,,0.00,WUHU216HW,2013-11-28 15:32:00,
2013-11-28 10:37:00,22.2,17.0,30.65,ENE,68,0.0,0.0,80,0.00,,,0.00,WUHU216HW,2013-11-28 15:37:00,
2013-11-28 10:42:00,22.2,17.0,30.65,ENE,68,0.0,0.0,80,0.00,,,0.00,WUHU216HW,2013-11-28 15:42:00,
2013-11-28 10:47:00,22.2,17.0,30.64,ENE,68,0.0,0.0,80,0.00,,,0.00,WUHU216HW,2013-11-28 15:47:00,
2013-11-28 10:52:00,22.4,17.2,30.64,ENE,68,0.0,0.0,80,0.00,,,0.00,WUHU216HW,2013-11-28 15:52:00,
2013-11-28 10:57:00,22.6,17.4,30.64,ENE,68,0.0,0.0,80,0.00,,,0.00,WUHU216HW,2013-11-28 15:57:00,
2013-11-28 11:02:00,22.6,17.4,30.63,ENE,68,0.0,0.0,80,0.00,,,0.00,WUHU216HW,2013-11-28 16:02:00,
2013-11-28 11:07:00,22.4,17.2,30.63,ENE,68,0.0,0.0,80,0.00,,,0.00,WUHU216HW,2013-11-28 16:07:00,
2013-11-28 11:12:00,22.6,17.4,30.63,ENE,68,0.0,0.0,80,0.00,,,0.00,WUHU216HW,2013-11-28 16:12:00,
2013-11-28 11:17:00,22.6,17.4,30.63,ENE,68,0.0,0.0,80,0.00,,,0.00,WUHU216HW,2013-11-28 16:17:00,
2013-11-28 11:22:00,22.8,17.6,30.63,ENE,68,0.0,0.0,80,0.00,,,0.00,WUHU216HW,2013-11-28 16:22:00,
2013-11-28 11:27:00,22.8,17.6,30.63,ENE,68,0.0,0.0,80,0.00,,,0.00,WUHU216HW,2013-11-28 16:27:00,
2013-11-28 11:32:00,22.8,17.6,30.63,ENE,68,0.0,0.0,80,0.00,,,0.00,WUHU216HW,2013-11-28 16:32:00,
2013-11-28 11:37:00,22.8,17.6,30.62,ENE,68,0.0,0.0,80,0.00,,,0.00,WUHU216HW,2013-11-28 16:37:00,
2013-11-28 11:42:00,22.8,17.6,30.62,ENE,68,0.0,0.0,80,0.00,,,0.00,WUHU216HW,2013-11-28 16:42:00,
2013-11-28 11:47:00,22.8,17.6,30.62,ENE,68,0.0,0.0,80,0.00,,,0.00,WUHU216HW,2013-11-28 16:47:00,
2013-11-28 11:52:00,22.8,17.6,30.62,ENE,68,0.0,0.0,80,0.00,,,0.00,WUHU216HW,2013-11-28 16:52:00,
2013-11-28 11:57:00,22.8,17.6,30.62,ENE,68,0.0,0.0,80,0.00,,,0.00,WUHU216HW,2013-11-28 16:57:00,
2013-11-28 12:02:00,22.8,17.6,30.61,ENE,68,0.0,0.0,80,0.00,,,0.00,WUHU216HW,2013-11-28 17:02:00,
2013-11-28 12:07:00,22.8,17.6,30.61,ENE,68,0.0,0.0,80,0.00,,,0.00,WUHU216HW,2013-11-28 17:07:00,
2013-11-28 12:12:00,23.0,17.7,30.61,ENE,68,0.0,0.0,80,0.00,,,0.00,WUHU216HW,2013-11-28 17:12:00,
2013-11-28 12:17:00,23.0,17.7,30.61,NNE,23,0.0,0.0,80,0.00,,,0.00,WUHU216HW,2013-11-28 17:17:00,
2013-11-28 12:22:00,23.0,17.7,30.61,NNE,23,0.0,0.0,80,0.00,,,0.00,WUHU216HW,2013-11-28 17:22:00,
2013-11-28 12:27:00,23.1,17.9,30.61,NNE,23,0.0,0.0,80,0.00,,,0.00,WUHU216HW,2013-11-28 17:27:00,
2013-11-28 12:32:00,23.1,17.9,30.61,NNE,23,0.0,0.0,80,0.00,,,0.00,WUHU216HW,2013-11-28 17:32:00,
2013-11-28 12:37:00,23.1,17.6,30.61,NNE,23,0.0,0.0,79,0.00,,,0.00,WUHU216HW,2013-11-28 17:37:00,
2013-11-28 12:42:00,23.1,17.6,30.61,NNE,23,0.0,0.0,79,0.00,,,0.00,WUHU216HW,2013-11-28 17:42:00,
2013-11-28 12:47:00,23.1,17.6,30.60,NNE,23,0.0,0.0,79,0.00,,,0.00,WUHU216HW,2013-11-28 17:47:00,
2013-11-28 12:52:00,23.3,17.8,30.60,NNE,23,0.0,0.0,79,0.00,,,0.00,WUHU216HW,2013-11-28 17:52:00,
2013-11-28 12:57:00,23.3,17.8,30.60,NNE,23,0.0,0.0,79,0.00,,,0.00,WUHU216HW,2013-11-28 17:57:00,
2013-11-28 13:02:00,23.3,17.8,30.60,NNE,23,0.0,0.0,79,0.00,,,0.00,WUHU216HW,2013-11-28 18:02:00,
2013-11-28 13:07:00,23.3,17.8,30.60,NNE,23,0.0,0.0,79,0.00,,,0.00,WUHU216HW,2013-11-28 18:07:00,
2013-11-28 13:12:00,23.5,17.9,30.60,NNE,23,0.0,0.0,79,0.00,,,0.00,WUHU216HW,2013-11-28 18:12:00,
2013-11-28 13:17:00,23.3,17.8,30.60,NNE,23,0.0,0.0,79,0.00,,,0.00,WUHU216HW,2013-11-28 18:17:00,
2013-11-28 13:22:00,23.5,17.9,30.60,NNE,23,0.0,0.0,79,0.00,,,0.00,WUHU216HW,2013-11-28 18:22:00,
2013-11-28 13:27:00,23.7,18.1,30.60,NNE,23,0.0,0.0,79,0.00,,,0.00,WUHU216HW,2013-11-28 18:27:00,
2013-11-28 13:32:00,23.5,17.9,30.60,NNE,23,0.0,0.0,79,0.00,,,0.00,WUHU216HW,2013-11-28 18:32:00,
2013-11-28 13:37:00,23.5,17.9,30.60,NNE,23,0.0,0.0,79,0.00,,,0.00,WUHU216HW,2013-11-28 18:37:00,
2013-11-28 13:42:00,23.5,17.9,30.60,NNE,23,0.0,0.0,79,0.00,,,0.00,WUHU216HW,2013-11-28 18:42:00,
2013-11-28 13:47:00,23.5,17.9,30.59,NNE,23,0.0,0.0,79,0.00,,,0.00,WUHU216HW,2013-11-28 18:47:00,
2013-11-28 13:52:00,23.7,18.1,30.59,NNE,23,0.0,0.0,79,0.00,,,0.00,WUHU216HW,2013-11-28 18:52:00,
2013-11-28 13:57:00,23.9,18.3,30.59,NNE,23,0.0,0.0,79,0.00,,,0.00,WUHU216HW,2013-11-28 18:57:00,
2013-11-28 14:02:00,23.9,18.3,30.59,NNE,23,0.0,0.0,79,0.00,,,0.00,WUHU216HW,2013-11-28 19:02:00,
2013-11-28 14:07:00,23.9,18.3,30.59,NNE,23,0.0,0.0,79,0.00,,,0.00,WUHU216HW,2013-11-28 19:07:00,
2013-11-28 14:12:00,23.9,18.3,30.59,NNE,23,0.0,0.0,79,0.00,,,0.00,WUHU216HW,2013-11-28 19:12:00,
2013-11-28 14:17:00,24.0,18.5,30.59,NNE,23,0.0,0.0,79,0.00,,,0.00,WUHU216HW,2013-11-28 19:17:00,
2013-11-28 14:22:00,24.0,18.5,30.59,NNE,23,0.0,0.0,79,0.00,,,0.00,WUHU216HW,2013-11-28 19:22:00,
2013-11-28 14:27:00,24.0,18.5,30.59,NNE,23,0.0,0.0,79,0.00,,,0.00,WUHU216HW,2013-11-28 19:27:00,
2013-11-28 14:32:00,24.0,18.5,30.59,NNE,23,0.0,0.0,79,0.00,,,0.00,WUHU216HW,2013-11-28 19:32:00,
2013-11-28 14:37:00,24.4,18.8,30.59,NNE,23,0.0,0.0,79,0.00,,,0.00,WUHU216HW,2013-11-28 19:37:00,
2013-11-28 14:42:00,24.4,18.8,30.59,NNE,23,0.0,0.0,79,0.00,,,0.00,WUHU216HW,2013-11-28 19:42:00,
2013-11-28 14:47:00,24.4,18.8,30.59,NNE,23,0.0,0.0,79,0.00,,,0.00,WUHU216HW,2013-11-28 19:47:00,
2013-11-28 14:52:00,24.4,18.8,30.59,NNE,23,0.0,0.0,79,0.00,,,0.00,WUHU216HW,2013-11-28 19:52:00,
2013-11-28 14:57:00,24.6,19.0,30.59,NNE,23,0.0,0.0,79,0.00,,,0.00,WUHU216HW,2013-11-28 19:57:00,
2013-11-28 15:02:00,24.6,19.0,30.60,NNE,23,0.0,0.0,79,0.00,,,0.00,WUHU216HW,2013-11-28 20:02:00,
2013-11-28 15:07:00,24.6,19.0,30.60,NNE,23,0.0,0.0,79,0.00,,,0.00,WUHU216HW,2013-11-28 20:07:00,